createdAt,value
2023-02-22T06:03:08.276Z,555.00
2023-02-22T06:56:11.207Z,558.00
2023-02-22T06:57:11.277Z,557.00
2023-02-22T06:58:11.326Z,557.00
2023-02-22T06:59:11.387Z,554.00
2023-02-22T07:00:11.438Z,553.00
2023-02-22T07:01:11.536Z,549.00
2023-02-22T07:02:11.551Z,548.00
2023-02-22T07:03:11.626Z,550.00
2023-02-22T07:04:11.706Z,555.00
2023-02-22T07:05:11.726Z,555.00
2023-02-22T07:06:11.784Z,558.00
2023-02-22T07:09:11.949Z,559.00
2023-02-22T07:10:12.017Z,561.00
2023-02-22T07:11:12.049Z,569.00
2023-02-22T07:12:12.097Z,575.00
2023-02-22T07:13:11.066Z,577.00
2023-02-22T07:14:12.099Z,577.00
2023-02-22T07:15:12.128Z,581.00
2023-02-22T07:16:12.177Z,585.00
2023-02-22T07:17:11.242Z,588.00
2023-02-22T07:18:12.308Z,589.00
2023-02-22T07:19:12.358Z,591.00
2023-02-22T07:20:11.431Z,596.00
2023-02-22T07:21:12.489Z,601.00
2023-02-22T07:22:11.550Z,605.00
2023-02-22T07:23:12.629Z,609.00
2023-02-22T07:24:12.679Z,614.00
2023-02-22T07:25:12.719Z,617.00
2023-02-22T07:26:12.777Z,626.00
2023-02-22T07:27:12.845Z,628.00
2023-02-22T07:28:12.896Z,635.00
2023-02-22T07:29:12.967Z,639.00
2023-02-22T07:30:12.049Z,645.00
2023-02-22T07:31:13.067Z,651.00
2023-02-22T07:32:13.338Z,659.00
2023-02-22T07:33:13.379Z,662.00
2023-02-22T07:34:13.230Z,669.00
2023-02-22T07:35:13.262Z,671.00
2023-02-22T07:37:12.366Z,684.00
2023-02-22T07:38:13.426Z,689.00
2023-02-22T07:39:13.948Z,696.00
2023-02-22T07:40:13.561Z,703.00
2023-02-22T07:41:13.590Z,712.00
2023-02-22T07:42:13.620Z,721.00
2023-02-22T07:43:13.661Z,729.00
2023-02-22T07:44:13.703Z,741.00
2023-02-22T07:46:13.785Z,758.00
2023-02-22T07:47:13.829Z,766.00
2023-02-22T07:49:13.924Z,780.00
2023-02-22T07:50:13.959Z,789.00
2023-02-22T07:51:14.017Z,800.00
2023-02-22T07:53:13.074Z,851.00
2023-02-22T07:55:13.204Z,860.00
2023-02-22T07:56:14.214Z,857.00
2023-02-22T07:57:14.266Z,861.00
2023-02-22T07:58:13.299Z,869.00
2023-02-22T07:59:14.428Z,878.00
2023-02-22T08:00:13.435Z,886.00
2023-02-22T08:02:13.488Z,904.00
2023-02-22T08:31:14.425Z,1195.00
2023-02-22T08:34:14.424Z,1214.00
2023-02-22T08:36:14.481Z,1233.00
2023-02-22T08:40:15.023Z,1282.00
2023-02-22T08:48:14.724Z,1325.00
2023-02-22T08:54:14.859Z,1362.00
2023-02-22T09:02:15.012Z,1343.00
2023-02-22T09:04:15.055Z,1329.00
2023-02-22T09:11:15.460Z,1278.00
2023-02-22T09:13:15.231Z,1263.00
2023-02-22T09:15:15.330Z,1247.00
2023-02-22T09:18:15.399Z,1216.00
2023-02-22T09:20:15.403Z,1199.00
2023-02-22T11:24:19.537Z,845.00
2023-02-22T11:25:19.575Z,845.00
2023-02-22T11:26:19.598Z,842.00
2023-02-22T11:34:19.898Z,844.00
2023-02-22T12:59:21.726Z,832.00
2023-02-22T13:03:21.703Z,829.00
2023-02-22T13:04:21.715Z,824.00
2023-02-22T13:07:21.795Z,823.00
2023-02-22T13:08:21.817Z,822.00
2023-02-22T13:09:21.824Z,823.00
2023-02-22T13:11:21.866Z,823.00
2023-02-22T13:12:21.869Z,821.00
2023-02-22T13:13:21.892Z,818.00
2023-02-22T13:14:21.905Z,818.00
2023-02-22T13:15:21.927Z,816.00
2023-02-22T13:16:22.076Z,816.00
2023-02-22T13:17:21.939Z,816.00
2023-02-22T13:19:21.964Z,811.00
2023-02-22T13:20:21.978Z,812.00
2023-02-22T13:21:21.997Z,811.00
2023-02-22T13:22:24.455Z,811.00
2023-02-22T13:23:21.996Z,810.00
2023-02-22T13:24:21.991Z,810.00
2023-02-22T13:25:22.011Z,813.00
2023-02-22T13:26:21.981Z,814.00
2023-02-22T13:27:21.982Z,817.00
2023-02-22T13:28:22.618Z,818.00
2023-02-22T13:32:22.029Z,810.00
2023-02-22T13:33:21.941Z,813.00
2023-02-22T13:35:21.939Z,817.00
2023-02-22T13:36:21.937Z,815.00
2023-02-22T13:38:21.900Z,817.00
2023-02-22T13:39:21.902Z,818.00
2023-02-22T13:41:21.891Z,817.00
2023-02-22T13:42:21.871Z,816.00
2023-02-22T13:45:21.861Z,818.00
2023-02-22T13:46:21.939Z,819.00
2023-02-22T13:47:21.876Z,816.00
2023-02-22T13:48:21.866Z,816.00
2023-02-22T13:49:23.552Z,814.00
2023-02-22T13:50:21.811Z,812.00
2023-02-22T13:52:21.816Z,807.00
2023-02-22T13:53:21.792Z,804.00
2023-02-22T13:55:21.770Z,800.00
2023-02-22T13:56:21.777Z,798.00
2023-02-22T13:57:21.771Z,796.00
2023-02-22T13:59:21.765Z,795.00
2023-02-22T14:00:21.742Z,794.00
2023-02-22T14:01:21.734Z,790.00
2023-02-22T14:02:21.729Z,787.00
2023-02-22T14:04:21.722Z,774.00
2023-02-22T14:05:21.754Z,774.00
2023-02-22T14:06:21.701Z,774.00
2023-02-22T14:29:21.808Z,692.00
2023-02-22T14:30:21.912Z,687.00
2023-02-22T14:31:34.961Z,685.00
2023-02-22T14:32:22.002Z,682.00
2023-02-22T14:33:21.903Z,681.00
2023-02-22T14:34:21.901Z,681.00
2023-02-22T14:35:27.515Z,679.00
2023-02-22T14:36:21.905Z,679.00
2023-02-22T14:37:21.895Z,680.00
2023-02-22T14:38:21.870Z,682.00
2023-02-22T14:39:21.853Z,681.00
2023-02-22T14:40:21.859Z,676.00
2023-02-22T14:41:22.178Z,676.00
2023-02-22T14:45:21.829Z,648.00
2023-02-22T14:46:21.851Z,643.00
2023-02-22T14:47:21.817Z,643.00
2023-02-22T14:48:21.814Z,638.00
2023-02-22T14:49:21.803Z,635.00
2023-02-22T14:52:21.784Z,629.00
2023-02-22T14:53:21.811Z,628.00
2023-02-22T14:54:21.769Z,628.00
2023-02-22T14:56:21.742Z,621.00
2023-02-22T14:57:21.748Z,618.00
2023-02-22T14:59:21.757Z,617.00
2023-02-22T15:00:21.733Z,615.00
2023-02-22T15:07:21.949Z,602.00
2023-02-22T15:10:22.020Z,594.00
2023-02-22T15:14:26.238Z,583.00
2023-02-22T15:16:22.326Z,600.00
2023-02-22T15:17:22.315Z,598.00
2023-02-22T15:18:22.325Z,585.00
2023-02-22T15:19:22.356Z,578.00
2023-02-22T15:20:22.401Z,571.00
2023-02-22T15:21:22.446Z,566.00
2023-02-22T15:22:22.498Z,558.00
2023-02-22T15:23:22.539Z,555.00
2023-02-22T15:25:22.615Z,546.00
2023-02-22T15:26:22.655Z,544.00
2023-02-22T15:27:22.704Z,541.00
2023-02-22T15:28:22.764Z,540.00
2023-02-22T15:29:22.790Z,540.00
2023-02-22T15:30:22.858Z,536.00
2023-02-22T15:31:21.938Z,534.00
2023-02-22T15:32:22.169Z,537.00
2023-02-22T15:33:23.083Z,534.00
2023-02-22T15:34:22.068Z,533.00
2023-02-22T15:35:22.086Z,534.00
2023-02-22T15:36:23.115Z,533.00
2023-02-22T15:37:23.193Z,534.00
2023-02-22T15:38:23.211Z,532.00
2023-02-22T15:39:23.429Z,530.00
2023-02-22T15:40:23.364Z,514.00
2023-02-22T15:41:22.347Z,503.00
2023-02-22T15:42:23.394Z,493.00
2023-02-22T15:43:22.372Z,490.00
2023-02-22T15:44:24.230Z,485.00
2023-02-22T15:45:23.489Z,482.00
2023-02-22T15:46:23.496Z,478.00
2023-02-22T15:47:22.549Z,470.00
2023-02-22T15:48:22.673Z,473.00
2023-02-22T15:49:23.620Z,474.00
2023-02-22T15:50:23.768Z,473.00
2023-02-22T15:51:23.727Z,474.00
2023-02-22T15:52:23.785Z,473.00
2023-02-22T15:53:23.850Z,474.00
2023-02-22T15:54:27.531Z,477.00
2023-02-22T15:55:25.678Z,473.00
2023-02-22T15:56:22.848Z,470.00
2023-02-22T15:57:23.863Z,462.00
2023-02-22T15:58:23.835Z,466.00
2023-02-22T15:59:23.825Z,465.00
2023-02-22T16:00:23.812Z,463.00
2023-02-22T16:01:23.890Z,463.00
2023-02-22T16:02:23.894Z,460.00
2023-02-22T16:03:22.797Z,460.00
2023-02-22T16:04:22.803Z,458.00
2023-02-22T16:05:22.778Z,457.00
2023-02-22T16:06:22.773Z,455.00
2023-02-22T16:07:23.762Z,457.00
2023-02-22T16:08:22.753Z,459.00
2023-02-22T16:09:23.746Z,466.00
2023-02-22T16:10:22.750Z,465.00
2023-02-22T16:11:22.748Z,464.00
2023-02-22T16:12:22.730Z,467.00
2023-02-22T16:13:31.397Z,465.00
2023-02-22T16:14:23.705Z,463.00
2023-02-22T16:15:22.689Z,461.00
2023-02-22T16:16:23.887Z,463.00
2023-02-22T16:17:23.684Z,466.00
2023-02-22T16:18:23.684Z,460.00
2023-02-22T16:19:23.663Z,458.00
2023-02-22T16:20:23.669Z,460.00
2023-02-22T16:21:23.656Z,462.00
2023-02-22T16:22:22.640Z,466.00
2023-02-22T16:23:22.644Z,468.00
2023-02-22T16:26:23.621Z,484.00
